sensor_id;sensor_type;location;lat;lon;timestamp;P1;durP1;ratioP1;P2;durP2;ratioP2
28629;SDS011;15817;42.130;24.762;2022-08-03T00:01:00;2.50;;;1.80;;
28629;SDS011;15817;42.130;24.762;2022-08-03T00:03:26;2.60;;;1.48;;
28629;SDS011;15817;42.130;24.762;2022-08-03T00:05:51;4.88;;;1.70;;
28629;SDS011;15817;42.130;24.762;2022-08-03T00:08:17;1.92;;;1.50;;
28629;SDS011;15817;42.130;24.762;2022-08-03T00:10:43;4.03;;;1.70;;
28629;SDS011;15817;42.130;24.762;2022-08-03T00:13:09;6.18;;;1.60;;
28629;SDS011;15817;42.130;24.762;2022-08-03T00:15:40;6.05;;;1.60;;
28629;SDS011;15817;42.130;24.762;2022-08-03T00:18:07;3.25;;;1.45;;
28629;SDS011;15817;42.130;24.762;2022-08-03T00:20:33;5.32;;;1.95;;
28629;SDS011;15817;42.130;24.762;2022-08-03T00:23:02;2.53;;;1.42;;
28629;SDS011;15817;42.130;24.762;2022-08-03T00:25:28;3.33;;;1.73;;
28629;SDS011;15817;42.130;24.762;2022-08-03T00:27:56;1.75;;;1.50;;
28629;SDS011;15817;42.130;24.762;2022-08-03T00:30:22;3.95;;;1.50;;
28629;SDS011;15817;42.130;24.762;2022-08-03T00:32:48;3.13;;;1.98;;
28629;SDS011;15817;42.130;24.762;2022-08-03T00:35:14;4.53;;;1.63;;
28629;SDS011;15817;42.130;24.762;2022-08-03T00:37:40;7.20;;;1.50;;
28629;SDS011;15817;42.130;24.762;2022-08-03T00:40:05;3.25;;;1.88;;
28629;SDS011;15817;42.130;24.762;2022-08-03T00:42:32;2.92;;;1.80;;
28629;SDS011;15817;42.130;24.762;2022-08-03T00:44:57;2.25;;;1.45;;
28629;SDS011;15817;42.130;24.762;2022-08-03T00:47:23;1.85;;;1.40;;
28629;SDS011;15817;42.130;24.762;2022-08-03T00:49:49;1.85;;;1.50;;
28629;SDS011;15817;42.130;24.762;2022-08-03T00:52:15;2.33;;;1.42;;
28629;SDS011;15817;42.130;24.762;2022-08-03T00:54:41;3.88;;;1.60;;
28629;SDS011;15817;42.130;24.762;2022-08-03T00:57:07;2.92;;;1.40;;
28629;SDS011;15817;42.130;24.762;2022-08-03T00:59:34;2.05;;;1.50;;
28629;SDS011;15817;42.130;24.762;2022-08-03T01:02:02;4.15;;;1.42;;
28629;SDS011;15817;42.130;24.762;2022-08-03T01:04:30;4.47;;;2.10;;
28629;SDS011;15817;42.130;24.762;2022-08-03T01:07:09;3.67;;;1.60;;
28629;SDS011;15817;42.130;24.762;2022-08-03T01:09:58;1.80;;;1.55;;
28629;SDS011;15817;42.130;24.762;2022-08-03T01:12:35;3.00;;;1.40;;
28629;SDS011;15817;42.130;24.762;2022-08-03T01:20:21;1.83;;;1.58;;
28629;SDS011;15817;42.130;24.762;2022-08-03T01:29:00;2.97;;;1.58;;
28629;SDS011;15817;42.130;24.762;2022-08-03T01:32:20;3.08;;;1.75;;
28629;SDS011;15817;42.130;24.762;2022-08-03T01:34:27;3.45;;;1.90;;
28629;SDS011;15817;42.130;24.762;2022-08-03T01:36:56;2.75;;;1.70;;
28629;SDS011;15817;42.130;24.762;2022-08-03T01:39:25;2.13;;;1.50;;
28629;SDS011;15817;42.130;24.762;2022-08-03T01:42:00;3.63;;;1.67;;
28629;SDS011;15817;42.130;24.762;2022-08-03T01:44:33;5.13;;;1.90;;
28629;SDS011;15817;42.130;24.762;2022-08-03T01:47:02;6.72;;;2.10;;
28629;SDS011;15817;42.130;24.762;2022-08-03T01:49:31;5.57;;;2.13;;
28629;SDS011;15817;42.130;24.762;2022-08-03T01:52:01;2.95;;;2.00;;
28629;SDS011;15817;42.130;24.762;2022-08-03T01:54:29;6.93;;;2.00;;
28629;SDS011;15817;42.130;24.762;2022-08-03T01:56:57;6.95;;;2.25;;
28629;SDS011;15817;42.130;24.762;2022-08-03T01:59:24;6.53;;;2.10;;
28629;SDS011;15817;42.130;24.762;2022-08-03T02:01:52;6.05;;;2.10;;
28629;SDS011;15817;42.130;24.762;2022-08-03T02:04:23;4.78;;;1.90;;
28629;SDS011;15817;42.130;24.762;2022-08-03T02:06:51;4.75;;;1.90;;
28629;SDS011;15817;42.130;24.762;2022-08-03T02:09:21;2.30;;;1.50;;
28629;SDS011;15817;42.130;24.762;2022-08-03T02:11:48;6.03;;;1.80;;
28629;SDS011;15817;42.130;24.762;2022-08-03T02:14:16;3.97;;;1.70;;
28629;SDS011;15817;42.130;24.762;2022-08-03T02:16:44;7.50;;;1.92;;
28629;SDS011;15817;42.130;24.762;2022-08-03T02:19:10;3.85;;;2.13;;
28629;SDS011;15817;42.130;24.762;2022-08-03T02:21:36;4.80;;;1.90;;
28629;SDS011;15817;42.130;24.762;2022-08-03T02:24:03;5.60;;;2.00;;
28629;SDS011;15817;42.130;24.762;2022-08-03T02:26:30;5.60;;;2.03;;
28629;SDS011;15817;42.130;24.762;2022-08-03T02:29:04;6.22;;;2.30;;
28629;SDS011;15817;42.130;24.762;2022-08-03T02:31:35;6.70;;;2.35;;
28629;SDS011;15817;42.130;24.762;2022-08-03T02:34:05;5.45;;;2.20;;
28629;SDS011;15817;42.130;24.762;2022-08-03T02:36:36;10.10;;;2.30;;
28629;SDS011;15817;42.130;24.762;2022-08-03T02:39:03;8.88;;;2.67;;
28629;SDS011;15817;42.130;24.762;2022-08-03T02:41:37;3.40;;;1.60;;
28629;SDS011;15817;42.130;24.762;2022-08-03T02:44:08;8.90;;;1.98;;
28629;SDS011;15817;42.130;24.762;2022-08-03T02:46:37;7.00;;;1.80;;
28629;SDS011;15817;42.130;24.762;2022-08-03T02:49:07;5.45;;;1.67;;
28629;SDS011;15817;42.130;24.762;2022-08-03T02:51:38;3.47;;;1.60;;
28629;SDS011;15817;42.130;24.762;2022-08-03T02:54:05;4.40;;;1.40;;
28629;SDS011;15817;42.130;24.762;2022-08-03T02:56:33;2.13;;;1.73;;
28629;SDS011;15817;42.130;24.762;2022-08-03T02:59:02;4.72;;;1.90;;
28629;SDS011;15817;42.130;24.762;2022-08-03T03:01:30;2.63;;;1.90;;
28629;SDS011;15817;42.130;24.762;2022-08-03T03:03:57;2.88;;;1.80;;
28629;SDS011;15817;42.130;24.762;2022-08-03T03:06:25;4.80;;;1.92;;
28629;SDS011;15817;42.130;24.762;2022-08-03T03:08:52;1.85;;;1.30;;
28629;SDS011;15817;42.130;24.762;2022-08-03T03:11:19;1.50;;;1.40;;
28629;SDS011;15817;42.130;24.762;2022-08-03T03:13:47;4.15;;;1.60;;
28629;SDS011;15817;42.130;24.762;2022-08-03T03:16:14;1.63;;;1.50;;
28629;SDS011;15817;42.130;24.762;2022-08-03T03:18:41;2.13;;;1.40;;
28629;SDS011;15817;42.130;24.762;2022-08-03T03:21:09;5.65;;;1.75;;
28629;SDS011;15817;42.130;24.762;2022-08-03T03:23:35;2.60;;;1.60;;
28629;SDS011;15817;42.130;24.762;2022-08-03T03:26:04;4.53;;;1.45;;
28629;SDS011;15817;42.130;24.762;2022-08-03T03:28:31;2.85;;;1.40;;
28629;SDS011;15817;42.130;24.762;2022-08-03T03:30:57;3.95;;;1.55;;
28629;SDS011;15817;42.130;24.762;2022-08-03T03:33:24;2.03;;;1.60;;
28629;SDS011;15817;42.130;24.762;2022-08-03T03:35:50;4.22;;;1.80;;
28629;SDS011;15817;42.130;24.762;2022-08-03T03:38:17;7.78;;;2.05;;
28629;SDS011;15817;42.130;24.762;2022-08-03T03:40:43;8.48;;;2.78;;
28629;SDS011;15817;42.130;24.762;2022-08-03T03:43:10;8.40;;;1.90;;
28629;SDS011;15817;42.130;24.762;2022-08-03T03:45:37;5.57;;;1.88;;
28629;SDS011;15817;42.130;24.762;2022-08-03T03:48:06;4.75;;;1.77;;
28629;SDS011;15817;42.130;24.762;2022-08-03T03:50:33;3.90;;;1.90;;
28629;SDS011;15817;42.130;24.762;2022-08-03T03:53:00;3.88;;;1.50;;
28629;SDS011;15817;42.130;24.762;2022-08-03T03:55:29;1.65;;;1.55;;
28629;SDS011;15817;42.130;24.762;2022-08-03T03:57:55;6.55;;;2.10;;
28629;SDS011;15817;42.130;24.762;2022-08-03T04:00:21;2.85;;;1.75;;
28629;SDS011;15817;42.130;24.762;2022-08-03T04:02:47;8.25;;;2.67;;
28629;SDS011;15817;42.130;24.762;2022-08-03T04:05:13;14.18;;;2.50;;
28629;SDS011;15817;42.130;24.762;2022-08-03T04:08:17;11.05;;;3.28;;
28629;SDS011;15817;42.130;24.762;2022-08-03T04:14:02;5.35;;;1.67;;
28629;SDS011;15817;42.130;24.762;2022-08-03T04:16:50;5.95;;;2.10;;
28629;SDS011;15817;42.130;24.762;2022-08-03T04:21:57;3.67;;;1.85;;
28629;SDS011;15817;42.130;24.762;2022-08-03T04:24:38;12.00;;;2.05;;
28629;SDS011;15817;42.130;24.762;2022-08-03T04:27:10;14.00;;;2.47;;
28629;SDS011;15817;42.130;24.762;2022-08-03T04:29:40;11.50;;;3.08;;
28629;SDS011;15817;42.130;24.762;2022-08-03T04:32:10;7.57;;;2.65;;
28629;SDS011;15817;42.130;24.762;2022-08-03T04:34:47;4.63;;;2.00;;
28629;SDS011;15817;42.130;24.762;2022-08-03T04:37:34;4.43;;;2.20;;
28629;SDS011;15817;42.130;24.762;2022-08-03T04:40:05;4.82;;;2.10;;
28629;SDS011;15817;42.130;24.762;2022-08-03T04:42:33;3.78;;;1.80;;
28629;SDS011;15817;42.130;24.762;2022-08-03T04:45:02;5.55;;;1.77;;
28629;SDS011;15817;42.130;24.762;2022-08-03T04:47:32;3.08;;;1.85;;
28629;SDS011;15817;42.130;24.762;2022-08-03T04:50:02;6.55;;;1.70;;
28629;SDS011;15817;42.130;24.762;2022-08-03T04:52:29;3.40;;;1.95;;
28629;SDS011;15817;42.130;24.762;2022-08-03T04:54:54;5.57;;;2.47;;
28629;SDS011;15817;42.130;24.762;2022-08-03T04:57:21;3.70;;;1.80;;
28629;SDS011;15817;42.130;24.762;2022-08-03T04:59:46;7.20;;;2.10;;
28629;SDS011;15817;42.130;24.762;2022-08-03T05:02:17;5.40;;;2.17;;
28629;SDS011;15817;42.130;24.762;2022-08-03T05:04:43;3.25;;;1.90;;
28629;SDS011;15817;42.130;24.762;2022-08-03T05:07:11;4.97;;;1.95;;
28629;SDS011;15817;42.130;24.762;2022-08-03T05:09:41;4.30;;;1.85;;
28629;SDS011;15817;42.130;24.762;2022-08-03T05:12:07;6.90;;;2.05;;
28629;SDS011;15817;42.130;24.762;2022-08-03T05:14:36;14.18;;;2.90;;
28629;SDS011;15817;42.130;24.762;2022-08-03T05:17:03;9.90;;;2.70;;
28629;SDS011;15817;42.130;24.762;2022-08-03T05:19:32;8.77;;;2.28;;
28629;SDS011;15817;42.130;24.762;2022-08-03T05:21:58;8.00;;;2.22;;
28629;SDS011;15817;42.130;24.762;2022-08-03T05:24:27;10.32;;;1.90;;
28629;SDS011;15817;42.130;24.762;2022-08-03T05:26:57;10.57;;;2.55;;
28629;SDS011;15817;42.130;24.762;2022-08-03T05:29:23;7.82;;;2.20;;
28629;SDS011;15817;42.130;24.762;2022-08-03T05:31:48;10.98;;;2.67;;
28629;SDS011;15817;42.130;24.762;2022-08-03T05:34:17;9.88;;;2.10;;
28629;SDS011;15817;42.130;24.762;2022-08-03T05:36:47;9.32;;;2.08;;
28629;SDS011;15817;42.130;24.762;2022-08-03T05:39:13;8.95;;;2.33;;
28629;SDS011;15817;42.130;24.762;2022-08-03T05:41:39;6.05;;;2.38;;
28629;SDS011;15817;42.130;24.762;2022-08-03T05:44:05;5.95;;;2.50;;
28629;SDS011;15817;42.130;24.762;2022-08-03T05:46:31;10.20;;;2.75;;
28629;SDS011;15817;42.130;24.762;2022-08-03T05:48:57;8.85;;;2.13;;
28629;SDS011;15817;42.130;24.762;2022-08-03T05:51:22;10.30;;;2.70;;
28629;SDS011;15817;42.130;24.762;2022-08-03T05:57:44;6.57;;;2.17;;
28629;SDS011;15817;42.130;24.762;2022-08-03T06:00:11;6.68;;;2.40;;
28629;SDS011;15817;42.130;24.762;2022-08-03T06:02:37;12.10;;;3.35;;
28629;SDS011;15817;42.130;24.762;2022-08-03T06:05:03;10.05;;;2.85;;
28629;SDS011;15817;42.130;24.762;2022-08-03T06:07:30;6.35;;;2.40;;
28629;SDS011;15817;42.130;24.762;2022-08-03T06:09:56;11.77;;;2.47;;
28629;SDS011;15817;42.130;24.762;2022-08-03T06:12:22;15.40;;;2.60;;
28629;SDS011;15817;42.130;24.762;2022-08-03T06:14:48;6.45;;;2.40;;
28629;SDS011;15817;42.130;24.762;2022-08-03T06:17:17;10.98;;;2.78;;
28629;SDS011;15817;42.130;24.762;2022-08-03T06:19:46;13.35;;;3.45;;
28629;SDS011;15817;42.130;24.762;2022-08-03T06:22:19;15.52;;;3.53;;
28629;SDS011;15817;42.130;24.762;2022-08-03T06:24:47;12.18;;;2.67;;
28629;SDS011;15817;42.130;24.762;2022-08-03T06:27:16;6.07;;;2.55;;
28629;SDS011;15817;42.130;24.762;2022-08-03T06:29:47;14.88;;;2.90;;
28629;SDS011;15817;42.130;24.762;2022-08-03T06:32:13;17.83;;;2.97;;
28629;SDS011;15817;42.130;24.762;2022-08-03T06:34:39;17.15;;;3.25;;
28629;SDS011;15817;42.130;24.762;2022-08-03T06:37:05;14.75;;;2.80;;
28629;SDS011;15817;42.130;24.762;2022-08-03T06:39:34;13.38;;;2.50;;
28629;SDS011;15817;42.130;24.762;2022-08-03T06:42:00;11.23;;;2.70;;
28629;SDS011;15817;42.130;24.762;2022-08-03T06:44:25;8.27;;;2.75;;
28629;SDS011;15817;42.130;24.762;2022-08-03T06:46:57;12.40;;;3.15;;
28629;SDS011;15817;42.130;24.762;2022-08-03T06:49:25;8.77;;;2.85;;
28629;SDS011;15817;42.130;24.762;2022-08-03T06:51:53;4.50;;;2.30;;
28629;SDS011;15817;42.130;24.762;2022-08-03T06:54:19;6.75;;;2.17;;
28629;SDS011;15817;42.130;24.762;2022-08-03T06:56:46;12.38;;;2.53;;
28629;SDS011;15817;42.130;24.762;2022-08-03T06:59:13;7.82;;;2.47;;
28629;SDS011;15817;42.130;24.762;2022-08-03T07:01:38;4.25;;;2.33;;
28629;SDS011;15817;42.130;24.762;2022-08-03T07:04:11;6.43;;;2.88;;
28629;SDS011;15817;42.130;24.762;2022-08-03T07:06:37;6.68;;;2.00;;
28629;SDS011;15817;42.130;24.762;2022-08-03T07:09:03;5.30;;;1.92;;
28629;SDS011;15817;42.130;24.762;2022-08-03T07:11:32;4.00;;;2.10;;
28629;SDS011;15817;42.130;24.762;2022-08-03T07:14:04;4.28;;;2.20;;
28629;SDS011;15817;42.130;24.762;2022-08-03T07:16:32;4.65;;;2.35;;
28629;SDS011;15817;42.130;24.762;2022-08-03T07:18:58;4.35;;;2.20;;
28629;SDS011;15817;42.130;24.762;2022-08-03T07:21:24;8.65;;;2.30;;
28629;SDS011;15817;42.130;24.762;2022-08-03T07:23:52;9.27;;;2.42;;
28629;SDS011;15817;42.130;24.762;2022-08-03T07:26:21;6.25;;;2.17;;
28629;SDS011;15817;42.130;24.762;2022-08-03T07:28:51;5.63;;;2.35;;
28629;SDS011;15817;42.130;24.762;2022-08-03T07:31:19;5.97;;;2.65;;
28629;SDS011;15817;42.130;24.762;2022-08-03T07:33:45;14.85;;;2.40;;
28629;SDS011;15817;42.130;24.762;2022-08-03T07:36:11;5.63;;;2.40;;
28629;SDS011;15817;42.130;24.762;2022-08-03T07:38:39;4.40;;;2.22;;
28629;SDS011;15817;42.130;24.762;2022-08-03T07:41:05;11.60;;;2.42;;
28629;SDS011;15817;42.130;24.762;2022-08-03T07:43:31;4.93;;;2.33;;
28629;SDS011;15817;42.130;24.762;2022-08-03T07:45:57;6.72;;;2.70;;
28629;SDS011;15817;42.130;24.762;2022-08-03T07:48:23;4.80;;;2.58;;
28629;SDS011;15817;42.130;24.762;2022-08-03T07:50:49;3.30;;;2.53;;
28629;SDS011;15817;42.130;24.762;2022-08-03T07:53:17;3.65;;;2.72;;
28629;SDS011;15817;42.130;24.762;2022-08-03T07:55:45;3.55;;;3.10;;
28629;SDS011;15817;42.130;24.762;2022-08-03T07:58:11;3.00;;;2.67;;
28629;SDS011;15817;42.130;24.762;2022-08-03T08:00:40;6.43;;;2.50;;
28629;SDS011;15817;42.130;24.762;2022-08-03T08:03:06;4.20;;;2.90;;
28629;SDS011;15817;42.130;24.762;2022-08-03T08:05:35;7.70;;;2.78;;
28629;SDS011;15817;42.130;24.762;2022-08-03T08:08:02;5.38;;;3.20;;
28629;SDS011;15817;42.130;24.762;2022-08-03T08:10:29;5.88;;;2.83;;
28629;SDS011;15817;42.130;24.762;2022-08-03T08:12:55;8.80;;;3.03;;
28629;SDS011;15817;42.130;24.762;2022-08-03T08:15:24;6.70;;;2.83;;
28629;SDS011;15817;42.130;24.762;2022-08-03T08:17:54;5.10;;;2.78;;
28629;SDS011;15817;42.130;24.762;2022-08-03T08:20:29;5.22;;;3.10;;
28629;SDS011;15817;42.130;24.762;2022-08-03T08:23:07;7.03;;;2.80;;
28629;SDS011;15817;42.130;24.762;2022-08-03T08:25:33;6.50;;;3.15;;
28629;SDS011;15817;42.130;24.762;2022-08-03T08:28:02;7.05;;;3.03;;
28629;SDS011;15817;42.130;24.762;2022-08-03T08:30:29;5.90;;;2.90;;
28629;SDS011;15817;42.130;24.762;2022-08-03T08:32:56;8.20;;;3.30;;
28629;SDS011;15817;42.130;24.762;2022-08-03T08:35:22;6.28;;;3.20;;
28629;SDS011;15817;42.130;24.762;2022-08-03T08:37:49;7.60;;;3.47;;
28629;SDS011;15817;42.130;24.762;2022-08-03T08:40:15;8.50;;;2.92;;
28629;SDS011;15817;42.130;24.762;2022-08-03T08:42:42;6.68;;;2.70;;
28629;SDS011;15817;42.130;24.762;2022-08-03T08:45:11;4.40;;;2.75;;
28629;SDS011;15817;42.130;24.762;2022-08-03T08:47:39;7.13;;;3.40;;
28629;SDS011;15817;42.130;24.762;2022-08-03T08:50:09;3.97;;;2.92;;
28629;SDS011;15817;42.130;24.762;2022-08-03T08:52:35;10.07;;;2.95;;
28629;SDS011;15817;42.130;24.762;2022-08-03T08:55:08;3.30;;;2.65;;
28629;SDS011;15817;42.130;24.762;2022-08-03T08:57:48;5.70;;;2.60;;
28629;SDS011;15817;42.130;24.762;2022-08-03T09:00:23;5.75;;;2.92;;
28629;SDS011;15817;42.130;24.762;2022-08-03T09:02:49;8.20;;;2.45;;
28629;SDS011;15817;42.130;24.762;2022-08-03T09:05:18;5.43;;;2.53;;
28629;SDS011;15817;42.130;24.762;2022-08-03T09:07:48;7.85;;;2.80;;
28629;SDS011;15817;42.130;24.762;2022-08-03T09:10:17;2.92;;;2.70;;
28629;SDS011;15817;42.130;24.762;2022-08-03T09:12:49;6.10;;;2.72;;
28629;SDS011;15817;42.130;24.762;2022-08-03T09:15:23;8.15;;;2.95;;
28629;SDS011;15817;42.130;24.762;2022-08-03T09:17:51;3.97;;;2.72;;
28629;SDS011;15817;42.130;24.762;2022-08-03T09:20:20;4.00;;;2.72;;
28629;SDS011;15817;42.130;24.762;2022-08-03T09:22:51;5.57;;;2.67;;
28629;SDS011;15817;42.130;24.762;2022-08-03T09:25:28;7.93;;;2.83;;
28629;SDS011;15817;42.130;24.762;2022-08-03T09:28:07;11.13;;;3.58;;
28629;SDS011;15817;42.130;24.762;2022-08-03T09:30:43;4.72;;;2.78;;
28629;SDS011;15817;42.130;24.762;2022-08-03T09:33:11;7.22;;;2.33;;
28629;SDS011;15817;42.130;24.762;2022-08-03T09:35:41;7.93;;;2.95;;
28629;SDS011;15817;42.130;24.762;2022-08-03T09:38:18;6.32;;;2.70;;
28629;SDS011;15817;42.130;24.762;2022-08-03T09:40:50;54.83;;;7.65;;
28629;SDS011;15817;42.130;24.762;2022-08-03T09:43:19;7.93;;;2.95;;
28629;SDS011;15817;42.130;24.762;2022-08-03T09:45:46;2.55;;;2.35;;
28629;SDS011;15817;42.130;24.762;2022-08-03T09:50:53;5.15;;;2.40;;
28629;SDS011;15817;42.130;24.762;2022-08-03T09:53:21;4.63;;;2.30;;
28629;SDS011;15817;42.130;24.762;2022-08-03T09:55:51;10.35;;;2.40;;
28629;SDS011;15817;42.130;24.762;2022-08-03T09:58:25;13.65;;;2.85;;
28629;SDS011;15817;42.130;24.762;2022-08-03T10:01:12;5.88;;;2.00;;
28629;SDS011;15817;42.130;24.762;2022-08-03T10:03:49;2.42;;;2.03;;
28629;SDS011;15817;42.130;24.762;2022-08-03T10:06:22;4.95;;;2.47;;
28629;SDS011;15817;42.130;24.762;2022-08-03T10:09:05;7.32;;;2.53;;
28629;SDS011;15817;42.130;24.762;2022-08-03T10:11:33;3.65;;;2.33;;
28629;SDS011;15817;42.130;24.762;2022-08-03T10:14:11;6.25;;;2.50;;
28629;SDS011;15817;42.130;24.762;2022-08-03T10:16:45;3.13;;;2.30;;
28629;SDS011;15817;42.130;24.762;2022-08-03T10:19:21;4.85;;;2.25;;
28629;SDS011;15817;42.130;24.762;2022-08-03T10:21:53;3.30;;;2.08;;
28629;SDS011;15817;42.130;24.762;2022-08-03T10:24:23;3.50;;;2.13;;
28629;SDS011;15817;42.130;24.762;2022-08-03T10:27:00;6.30;;;2.25;;
28629;SDS011;15817;42.130;24.762;2022-08-03T10:29:44;2.38;;;2.17;;
28629;SDS011;15817;42.130;24.762;2022-08-03T10:32:17;3.38;;;2.15;;
28629;SDS011;15817;42.130;24.762;2022-08-03T10:34:50;5.18;;;2.40;;
28629;SDS011;15817;42.130;24.762;2022-08-03T10:37:21;5.70;;;2.20;;
28629;SDS011;15817;42.130;24.762;2022-08-03T10:40:12;2.67;;;2.38;;
28629;SDS011;15817;42.130;24.762;2022-08-03T10:45:45;3.47;;;2.28;;
28629;SDS011;15817;42.130;24.762;2022-08-03T10:48:11;4.70;;;2.80;;
28629;SDS011;15817;42.130;24.762;2022-08-03T10:53:43;4.88;;;2.30;;
28629;SDS011;15817;42.130;24.762;2022-08-03T10:56:46;7.68;;;2.53;;
28629;SDS011;15817;42.130;24.762;2022-08-03T11:05:43;6.25;;;2.53;;
28629;SDS011;15817;42.130;24.762;2022-08-03T11:10:49;7.95;;;2.90;;
28629;SDS011;15817;42.130;24.762;2022-08-03T11:13:22;6.75;;;2.60;;
28629;SDS011;15817;42.130;24.762;2022-08-03T11:15:53;5.35;;;2.28;;
28629;SDS011;15817;42.130;24.762;2022-08-03T11:18:21;3.78;;;2.47;;
28629;SDS011;15817;42.130;24.762;2022-08-03T11:21:16;5.03;;;2.05;;
28629;SDS011;15817;42.130;24.762;2022-08-03T11:30:00;4.90;;;2.28;;
28629;SDS011;15817;42.130;24.762;2022-08-03T11:35:56;2.20;;;2.00;;
28629;SDS011;15817;42.130;24.762;2022-08-03T11:38:25;2.67;;;2.47;;
28629;SDS011;15817;42.130;24.762;2022-08-03T11:41:04;2.38;;;2.17;;
28629;SDS011;15817;42.130;24.762;2022-08-03T11:44:01;2.85;;;2.10;;
28629;SDS011;15817;42.130;24.762;2022-08-03T11:46:36;9.02;;;2.38;;
28629;SDS011;15817;42.130;24.762;2022-08-03T11:49:06;3.97;;;1.80;;
28629;SDS011;15817;42.130;24.762;2022-08-03T11:51:41;4.35;;;2.13;;
28629;SDS011;15817;42.130;24.762;2022-08-03T11:54:09;2.83;;;2.05;;
28629;SDS011;15817;42.130;24.762;2022-08-03T11:56:50;4.57;;;1.67;;
28629;SDS011;15817;42.130;24.762;2022-08-03T11:59:30;3.30;;;2.22;;
28629;SDS011;15817;42.130;24.762;2022-08-03T12:02:10;4.35;;;2.35;;
28629;SDS011;15817;42.130;24.762;2022-08-03T12:07:23;4.20;;;2.28;;
28629;SDS011;15817;42.130;24.762;2022-08-03T12:12:30;3.05;;;1.90;;
28629;SDS011;15817;42.130;24.762;2022-08-03T12:14:56;3.10;;;2.03;;
28629;SDS011;15817;42.130;24.762;2022-08-03T12:17:22;5.05;;;2.72;;
28629;SDS011;15817;42.130;24.762;2022-08-03T12:19:59;3.97;;;1.85;;
28629;SDS011;15817;42.130;24.762;2022-08-03T12:22:32;3.08;;;1.85;;
28629;SDS011;15817;42.130;24.762;2022-08-03T12:25:02;2.03;;;1.88;;
28629;SDS011;15817;42.130;24.762;2022-08-03T12:27:32;2.40;;;1.83;;
28629;SDS011;15817;42.130;24.762;2022-08-03T12:30:00;2.03;;;1.83;;
28629;SDS011;15817;42.130;24.762;2022-08-03T12:32:34;3.83;;;2.13;;
28629;SDS011;15817;42.130;24.762;2022-08-03T12:35:03;2.25;;;1.60;;
28629;SDS011;15817;42.130;24.762;2022-08-03T12:37:32;3.65;;;1.58;;
28629;SDS011;15817;42.130;24.762;2022-08-03T12:39:58;1.98;;;1.67;;
28629;SDS011;15817;42.130;24.762;2022-08-03T12:42:35;2.50;;;1.60;;
28629;SDS011;15817;42.130;24.762;2022-08-03T12:45:17;2.58;;;1.80;;
28629;SDS011;15817;42.130;24.762;2022-08-03T12:47:57;3.75;;;1.75;;
28629;SDS011;15817;42.130;24.762;2022-08-03T12:53:00;1.65;;;1.55;;
28629;SDS011;15817;42.130;24.762;2022-08-03T12:55:29;2.47;;;1.65;;
28629;SDS011;15817;42.130;24.762;2022-08-03T12:58:05;1.70;;;1.60;;
28629;SDS011;15817;42.130;24.762;2022-08-03T13:00:35;2.03;;;1.70;;
28629;SDS011;15817;42.130;24.762;2022-08-03T13:03:06;1.40;;;1.30;;
28629;SDS011;15817;42.130;24.762;2022-08-03T13:05:42;2.65;;;1.45;;
28629;SDS011;15817;42.130;24.762;2022-08-03T13:08:19;3.05;;;1.52;;
28629;SDS011;15817;42.130;24.762;2022-08-03T13:10:49;1.55;;;1.45;;
28629;SDS011;15817;42.130;24.762;2022-08-03T13:13:17;3.80;;;1.30;;
28629;SDS011;15817;42.130;24.762;2022-08-03T13:16:02;2.35;;;1.40;;
28629;SDS011;15817;42.130;24.762;2022-08-03T13:18:30;1.40;;;1.30;;
28629;SDS011;15817;42.130;24.762;2022-08-03T13:20:56;4.45;;;1.55;;
28629;SDS011;15817;42.130;24.762;2022-08-03T13:23:24;3.35;;;1.30;;
28629;SDS011;15817;42.130;24.762;2022-08-03T13:25:52;1.98;;;1.30;;
28629;SDS011;15817;42.130;24.762;2022-08-03T13:28:21;3.85;;;1.38;;
28629;SDS011;15817;42.130;24.762;2022-08-03T13:30:50;3.55;;;1.70;;
28629;SDS011;15817;42.130;24.762;2022-08-03T13:33:22;3.13;;;1.50;;
28629;SDS011;15817;42.130;24.762;2022-08-03T13:35:50;2.78;;;1.48;;
28629;SDS011;15817;42.130;24.762;2022-08-03T13:38:18;2.10;;;1.40;;
28629;SDS011;15817;42.130;24.762;2022-08-03T13:40:44;1.88;;;1.27;;
28629;SDS011;15817;42.130;24.762;2022-08-03T13:43:10;3.33;;;1.63;;
28629;SDS011;15817;42.130;24.762;2022-08-03T13:48:51;4.10;;;1.30;;
28629;SDS011;15817;42.130;24.762;2022-08-03T13:51:19;1.85;;;1.38;;
28629;SDS011;15817;42.130;24.762;2022-08-03T13:53:45;3.78;;;1.50;;
28629;SDS011;15817;42.130;24.762;2022-08-03T13:56:11;2.80;;;1.20;;
28629;SDS011;15817;42.130;24.762;2022-08-03T13:58:37;1.88;;;1.35;;
28629;SDS011;15817;42.130;24.762;2022-08-03T14:01:10;4.70;;;1.50;;
28629;SDS011;15817;42.130;24.762;2022-08-03T14:03:39;2.60;;;1.50;;
28629;SDS011;15817;42.130;24.762;2022-08-03T14:06:05;1.98;;;1.50;;
28629;SDS011;15817;42.130;24.762;2022-08-03T14:08:33;1.90;;;1.70;;
28629;SDS011;15817;42.130;24.762;2022-08-03T14:11:02;2.53;;;1.70;;
28629;SDS011;15817;42.130;24.762;2022-08-03T14:13:28;2.20;;;1.42;;
28629;SDS011;15817;42.130;24.762;2022-08-03T14:16:01;1.60;;;1.50;;
28629;SDS011;15817;42.130;24.762;2022-08-03T14:18:28;3.70;;;1.70;;
28629;SDS011;15817;42.130;24.762;2022-08-03T14:20:54;5.10;;;1.73;;
28629;SDS011;15817;42.130;24.762;2022-08-03T14:23:21;4.35;;;2.00;;
28629;SDS011;15817;42.130;24.762;2022-08-03T14:25:47;2.25;;;1.75;;
28629;SDS011;15817;42.130;24.762;2022-08-03T14:28:13;3.67;;;1.98;;
28629;SDS011;15817;42.130;24.762;2022-08-03T14:30:39;4.50;;;2.00;;
28629;SDS011;15817;42.130;24.762;2022-08-03T14:33:08;1.88;;;1.50;;
28629;SDS011;15817;42.130;24.762;2022-08-03T14:35:33;1.50;;;1.40;;
28629;SDS011;15817;42.130;24.762;2022-08-03T14:37:59;2.65;;;1.45;;
28629;SDS011;15817;42.130;24.762;2022-08-03T14:40:25;4.53;;;1.70;;
28629;SDS011;15817;42.130;24.762;2022-08-03T14:42:51;8.02;;;1.58;;
28629;SDS011;15817;42.130;24.762;2022-08-03T14:45:38;9.45;;;2.00;;
28629;SDS011;15817;42.130;24.762;2022-08-03T14:48:04;17.88;;;2.53;;
28629;SDS011;15817;42.130;24.762;2022-08-03T14:50:30;14.02;;;2.42;;
28629;SDS011;15817;42.130;24.762;2022-08-03T14:52:56;5.60;;;2.10;;
28629;SDS011;15817;42.130;24.762;2022-08-03T14:55:22;16.88;;;3.35;;
28629;SDS011;15817;42.130;24.762;2022-08-03T14:57:48;5.88;;;1.83;;
28629;SDS011;15817;42.130;24.762;2022-08-03T15:00:14;6.78;;;1.92;;
28629;SDS011;15817;42.130;24.762;2022-08-03T15:02:41;2.30;;;1.75;;
28629;SDS011;15817;42.130;24.762;2022-08-03T15:05:06;4.60;;;1.80;;
28629;SDS011;15817;42.130;24.762;2022-08-03T15:07:33;5.95;;;2.25;;
28629;SDS011;15817;42.130;24.762;2022-08-03T15:10:04;2.17;;;1.98;;
28629;SDS011;15817;42.130;24.762;2022-08-03T15:12:31;4.00;;;2.00;;
28629;SDS011;15817;42.130;24.762;2022-08-03T15:15:05;3.08;;;1.52;;
28629;SDS011;15817;42.130;24.762;2022-08-03T15:17:31;2.97;;;1.63;;
28629;SDS011;15817;42.130;24.762;2022-08-03T15:19:57;2.17;;;2.00;;
28629;SDS011;15817;42.130;24.762;2022-08-03T15:22:23;7.68;;;2.10;;
28629;SDS011;15817;42.130;24.762;2022-08-03T15:24:49;4.03;;;1.80;;
28629;SDS011;15817;42.130;24.762;2022-08-03T15:27:15;2.90;;;1.63;;
28629;SDS011;15817;42.130;24.762;2022-08-03T15:29:40;3.90;;;2.63;;
28629;SDS011;15817;42.130;24.762;2022-08-03T15:32:06;3.40;;;2.05;;
28629;SDS011;15817;42.130;24.762;2022-08-03T15:34:39;3.28;;;1.52;;
28629;SDS011;15817;42.130;24.762;2022-08-03T15:37:07;8.05;;;1.80;;
28629;SDS011;15817;42.130;24.762;2022-08-03T15:39:36;2.40;;;2.00;;
28629;SDS011;15817;42.130;24.762;2022-08-03T15:42:02;2.15;;;1.98;;
28629;SDS011;15817;42.130;24.762;2022-08-03T15:44:28;13.45;;;2.83;;
28629;SDS011;15817;42.130;24.762;2022-08-03T15:46:53;3.38;;;1.92;;